createdAt,value
2023-05-17T00:02:01.369Z,8.10
2023-05-17T00:04:28.408Z,8.10
2023-05-17T00:06:55.396Z,8.10
2023-05-17T00:09:22.236Z,8.10
2023-05-17T00:11:48.983Z,8.10
2023-05-17T00:14:16.099Z,8.10
2023-05-17T00:16:43.073Z,8.20
2023-05-17T00:19:09.878Z,8.20
2023-05-17T00:21:36.889Z,8.20
2023-05-17T00:24:03.830Z,8.20
2023-05-17T00:26:30.767Z,8.20
2023-05-17T00:28:57.429Z,8.20
2023-05-17T00:31:24.245Z,8.20
2023-05-17T00:33:51.203Z,8.10
2023-05-17T00:36:17.918Z,8.20
2023-05-17T00:38:44.673Z,8.20
2023-05-17T00:41:12.970Z,8.20
2023-05-17T00:43:40.088Z,8.30
2023-05-17T00:46:07.061Z,8.20
2023-05-17T00:48:33.920Z,8.20
2023-05-17T00:51:00.926Z,8.10
2023-05-17T00:53:28.772Z,8.10
2023-05-17T00:55:55.976Z,8.10
2023-05-17T00:58:23.949Z,8.10
2023-05-17T01:00:51.268Z,8.00
2023-05-17T01:03:18.205Z,8.00
2023-05-17T01:05:45.477Z,7.90
2023-05-17T01:08:12.211Z,7.90
2023-05-17T01:11:11.718Z,8.00
2023-05-17T01:13:52.188Z,8.00
2023-05-17T01:16:42.267Z,8.00
2023-05-17T01:19:20.882Z,8.00
2023-05-17T01:21:47.619Z,8.00
2023-05-17T01:24:25.044Z,8.00
2023-05-17T01:26:52.996Z,8.00
2023-05-17T01:29:25.893Z,8.20
2023-05-17T01:31:53.766Z,8.10
2023-05-17T01:34:30.292Z,8.20
2023-05-17T01:36:58.213Z,8.10
2023-05-17T01:39:25.371Z,8.10
2023-05-17T01:42:05.308Z,8.10
2023-05-17T01:44:58.028Z,8.10
2023-05-17T01:47:39.361Z,8.10
2023-05-17T01:50:08.407Z,8.10
2023-05-17T01:52:46.031Z,8.10
2023-05-17T01:55:48.684Z,8.10
2023-05-17T01:58:18.623Z,8.10
2023-05-17T02:00:48.720Z,8.10
2023-05-17T02:03:20.161Z,8.00
2023-05-17T02:05:47.217Z,7.90
2023-05-17T02:08:14.477Z,7.90
2023-05-17T02:10:41.384Z,7.90
2023-05-17T02:13:08.067Z,7.90
2023-05-17T02:15:34.800Z,7.80
2023-05-17T02:18:01.649Z,7.90
2023-05-17T02:20:28.601Z,7.80
2023-05-17T02:22:55.479Z,7.80
2023-05-17T02:25:22.273Z,7.70
2023-05-17T02:27:49.040Z,7.70
2023-05-17T02:30:18.081Z,7.70
2023-05-17T02:32:45.287Z,7.60
2023-05-17T02:35:12.233Z,7.60
2023-05-17T02:37:39.284Z,7.50
2023-05-17T02:40:09.591Z,7.60
2023-05-17T02:42:36.896Z,7.60
2023-05-17T02:45:04.238Z,7.60
2023-05-17T02:47:31.243Z,7.60
2023-05-17T02:49:58.160Z,7.60
2023-05-17T02:52:25.078Z,7.60
2023-05-17T02:54:51.945Z,7.50
2023-05-17T02:57:18.712Z,7.50
2023-05-17T02:59:45.833Z,7.50
2023-05-17T03:02:12.882Z,7.40
2023-05-17T03:04:39.884Z,7.40
2023-05-17T03:07:07.295Z,7.30
2023-05-17T03:09:34.553Z,7.40
2023-05-17T03:12:01.616Z,7.40
2023-05-17T03:14:28.322Z,7.30
2023-05-17T03:16:55.231Z,7.40
2023-05-17T03:19:22.109Z,7.30
2023-05-17T03:21:49.095Z,7.30
2023-05-17T03:24:15.850Z,7.30
2023-05-17T03:26:42.578Z,7.20
2023-05-17T03:29:09.470Z,7.20
2023-05-17T03:31:36.451Z,7.10
2023-05-17T03:34:03.301Z,7.10
2023-05-17T03:36:31.341Z,7.00
2023-05-17T03:38:58.038Z,7.10
2023-05-17T03:41:24.870Z,7.10
2023-05-17T03:43:51.604Z,7.00
2023-05-17T03:46:18.327Z,7.10
2023-05-17T03:48:45.043Z,7.00
2023-05-17T03:51:11.953Z,7.10
2023-05-17T03:53:43.108Z,7.00
2023-05-17T03:56:10.865Z,7.10
2023-05-17T03:58:37.951Z,7.10
2023-05-17T04:01:05.128Z,7.10
2023-05-17T04:03:32.028Z,7.10
2023-05-17T04:06:06.807Z,7.10
2023-05-17T04:08:36.440Z,7.10
2023-05-17T04:11:10.202Z,7.20
2023-05-17T04:13:39.828Z,7.20
2023-05-17T04:16:08.349Z,7.30
2023-05-17T04:18:36.616Z,7.20
2023-05-17T04:21:04.583Z,7.20
2023-05-17T04:23:32.475Z,7.30
2023-05-17T04:25:59.157Z,7.30
2023-05-17T04:28:26.413Z,7.30
2023-05-17T04:30:53.462Z,7.30
2023-05-17T04:33:20.348Z,7.30
2023-05-17T04:35:47.295Z,7.40
2023-05-17T04:38:14.250Z,7.40
2023-05-17T04:40:41.035Z,7.40
2023-05-17T04:43:08.006Z,7.50
2023-05-17T04:45:34.845Z,7.50
2023-05-17T04:48:02.211Z,7.50
2023-05-17T04:50:29.014Z,7.50
2023-05-17T04:52:55.790Z,7.60
2023-05-17T04:55:22.518Z,7.60
2023-05-17T04:57:49.310Z,7.70
2023-05-17T05:00:17.024Z,7.70
2023-05-17T05:02:43.822Z,7.70
2023-05-17T05:05:11.050Z,7.90
2023-05-17T05:07:39.770Z,7.90
2023-05-17T05:10:07.662Z,8.00
2023-05-17T05:12:34.455Z,8.10
2023-05-17T05:15:01.383Z,8.20
2023-05-17T05:17:33.311Z,8.30
2023-05-17T05:20:00.422Z,8.30
2023-05-17T05:22:27.236Z,8.30
2023-05-17T05:24:54.035Z,8.40
2023-05-17T05:27:20.782Z,8.50
2023-05-17T05:29:47.643Z,8.50
2023-05-17T05:32:16.034Z,8.50
2023-05-17T05:34:43.279Z,8.60
2023-05-17T05:37:09.956Z,8.60
2023-05-17T05:39:36.684Z,8.70
2023-05-17T05:42:04.308Z,8.70
2023-05-17T05:44:33.815Z,8.70
2023-05-17T05:47:00.522Z,8.70
2023-05-17T05:49:27.227Z,8.80
2023-05-17T05:51:53.928Z,8.90
2023-05-17T05:54:20.697Z,9.00
2023-05-17T05:56:47.388Z,9.10
2023-05-17T05:59:14.153Z,9.10
2023-05-17T06:01:41.550Z,9.10
2023-05-17T06:04:08.322Z,9.20
2023-05-17T06:06:35.737Z,9.20
2023-05-17T06:09:03.321Z,9.30
2023-05-17T06:11:30.240Z,9.40
2023-05-17T06:13:57.037Z,9.40
2023-05-17T06:16:23.765Z,9.50
2023-05-17T06:18:51.377Z,9.70
2023-05-17T06:21:18.663Z,9.80
2023-05-17T06:23:45.667Z,10.00
2023-05-17T06:26:12.402Z,10.00
2023-05-17T06:28:39.189Z,10.10
2023-05-17T06:31:05.911Z,10.40
2023-05-17T06:33:33.037Z,10.70
2023-05-17T06:38:27.300Z,11.70
2023-05-17T06:40:55.194Z,11.40
2023-05-17T06:43:22.742Z,11.20
2023-05-17T06:45:49.701Z,12.40
2023-05-17T06:48:16.938Z,14.10
2023-05-17T06:50:43.794Z,15.60
2023-05-17T06:53:10.474Z,16.80
2023-05-17T06:55:37.213Z,16.70
2023-05-17T06:58:04.038Z,15.60
2023-05-17T07:00:32.268Z,14.70
2023-05-17T07:02:59.865Z,13.90
2023-05-17T07:05:29.190Z,13.00
2023-05-17T07:07:56.639Z,12.60
2023-05-17T07:10:23.570Z,12.20
